Terminal Aerodrome Forecast
Issued by NWS

Home | Current Version | Previous Version | Text Only | Print | Product List | Glossary On
Versions: 1 2 3 4 5 6 7 8 9 10 11 12 13 14 15 16 17 18
000
FTUS44 KLZK 270204 AAA
TAFHOT
TAF AMD
KHOT 270204Z 2702/2724 07008KT P6SM -RA VCTS SCT030CB OVC050
     FM270400 08005KT P6SM -SHRA VCTS BKN025CB OVC040
     FM270800 10005KT 6SM -SHRA BR VCTS BKN015CB OVC040
     FM271200 10004KT 4SM -RA BR OVC010
     FM271500 10008KT 6SM BR VCSH OVC025=

USA.gov is the U.S. government's official web portal to all federal, state and local government web resources and services.